Search METAR Data

METAR Data for ENST:

ENST 241620Z 25005KT 220V290 9999 FEW015 SCT025 BKN053 05/M01 Q1009 RMK WIND 300FT 26004KT